Mabel, MN

9:11 AM CDT on August 24, 2016 (GMT -0500)
East of Mabel | | Change Station

Elev 1184 ft 43.52 °N, 91.72 °W | Updated 13 seconds ago

Overcast
Overcast
69.8 °F
Feels Like 69.8 °F
N
4.0
Wind Variable Wind from SSW
Gusts 4.9 mph

Today
High -- | Low -- °F
--% Chance of Precip.
Yesterday
High -- | Low -- °F
Precip. -- in
Pressure 29.89 in
Visibility 10.0 miles
Clouds Few 600 ft
Scattered Clouds 2100 ft
Overcast 4200 ft
Dew Point 69 °F
Humidity 98%
Rainfall 0.00 in
Snow Depth Not available.
6:22 AM 7:55 PM
Waning Gibbous, 56% visible
METAR KDEH 241355Z AUTO 16007KT 10SM FEW006 SCT021 OVC042 20/20 A2989 RMK AO2
Pressure 29.89 in
Visibility 10.0 miles
Clouds Few 600 ft
Scattered Clouds 2100 ft
Overcast 4200 ft
Dew Point 69 °F
Humidity 98%
Rainfall 0.00 in
Snow Depth Not available.
6:22 AM 7:55 PM
Waning Gibbous, 56% visible
METAR KDEH 241355Z AUTO 16007KT 10SM FEW006 SCT021 OVC042 20/20 A2989 RMK AO2

10-Day Weather Forecast

Almanac

Astronomy

Aug. 24, 2016 Rise Set
Actual Time
Civil Twilight
Nautical Twilight
Astronomical Twilight
Moon
Length of Visible Light
Length of Day
Tomorrow will be .
, % of the Moon is Illuminated

Today's Extremes

State Highs State Lows

Community

WunderPhotos

Upload Photos

1,934,605 photos uploaded!

WunderBlog® & News

Nearby

Air Quality

  Air Quality AQ Index Pollutant
Not available.

Snow Depth

Station Depth Elevation

Earthquake Activity

City Distance Mag. Time & Date
Minimum magnitude displayed is 2.5.

Coastal Water Temperatures

Place Temperature

Stations

Nearby Weather Stations

Station Location Temp. Windchill Dew Point Humidity Wind Precip. Elev Updated Type
                   

Watches & Warnings

There are currently no watches in effect.